Time;durP1;ratioP1;P1;durP2;ratioP2;P2;SDS_P1;SDS_P2;PMS_P1;PMS_P2;Temp;Humidity;BMP_temperature;BMP_pressure;BME280_temperature;BME280_humidity;BME280_pressure;Samples;Min_cycle;Max_cycle;Signal;HPM_P1;HPM_P2
2021/12/18 00:01:38;;;;;;;30.15;17.60;;;;;;;;;;4959864;29;20184;-82
2021/12/18 00:04:05;;;;;;;30.38;18.80;;;;;;;;;;4956282;28;20674;-82
2021/12/18 00:06:31;;;;;;;27.98;16.33;;;;;;;;;;4966379;28;20216;-82
2021/12/18 00:08:58;;;;;;;27.13;16.17;;;;;;;;;;4950078;28;20180;-82
2021/12/18 00:11:26;;;;;;;29.55;18.75;;;;;;;;;;4966477;29;20275;-81
2021/12/18 00:13:52;;;;;;;25.27;16.83;;;;;;;;;;4945821;29;20199;-82
2021/12/18 00:16:18;;;;;;;31.85;17.38;;;;;;;;;;4963719;29;20188;-84
2021/12/18 00:18:47;;;;;;;29.85;17.40;;;;;;;;;;4961990;29;20191;-84
2021/12/18 00:21:17;;;;;;;25.83;16.25;;;;;;;;;;4966218;29;20306;-84
2021/12/18 00:23:43;;;;;;;24.80;17.10;;;;;;;;;;4968527;29;20180;-83
2021/12/18 00:26:09;;;;;;;26.00;15.95;;;;;;;;;;4950296;29;20199;-84
2021/12/18 00:28:35;;;;;;;27.27;16.20;;;;;;;;;;4961953;28;20184;-84
2021/12/18 00:31:01;;;;;;;22.98;14.70;;;;;;;;;;4964767;28;20367;-81
2021/12/18 00:33:27;;;;;;;24.52;15.52;;;;;;;;;;4964577;29;20215;-81
2021/12/18 00:35:53;;;;;;;25.38;15.00;;;;;;;;;;4973170;29;20176;-81
2021/12/18 00:38:19;;;;;;;20.27;15.32;;;;;;;;;;4961922;29;20225;-81
2021/12/18 00:40:48;;;;;;;32.60;17.05;;;;;;;;;;4965757;29;20207;-81
2021/12/18 00:43:29;;;;;;;27.23;14.45;;;;;;;;;;4965316;28;20180;-81
2021/12/18 00:45:55;;;;;;;25.58;15.13;;;;;;;;;;4963753;28;20203;-81
2021/12/18 00:48:22;;;;;;;24.38;16.45;;;;;;;;;;4965253;28;20193;-81
2021/12/18 00:50:48;;;;;;;22.30;16.05;;;;;;;;;;4968053;28;20201;-81
2021/12/18 00:53:14;;;;;;;21.33;15.38;;;;;;;;;;4965485;29;20180;-81
2021/12/18 00:55:40;;;;;;;23.83;14.77;;;;;;;;;;4964389;29;20188;-81
2021/12/18 00:58:07;;;;;;;24.92;14.32;;;;;;;;;;4947147;29;20193;-81
2021/12/18 01:00:33;;;;;;;21.20;14.15;;;;;;;;;;4947445;29;20185;-82
2021/12/18 01:03:01;;;;;;;18.13;13.65;;;;;;;;;;4967102;28;20172;-82
2021/12/18 01:05:28;;;;;;;24.23;15.27;;;;;;;;;;4954010;29;20227;-82
2021/12/18 01:07:56;;;;;;;15.80;12.07;;;;;;;;;;4961522;29;20185;-81
2021/12/18 01:10:38;;;;;;;22.08;13.77;;;;;;;;;;4946378;29;20184;-81
2021/12/18 01:13:07;;;;;;;27.05;14.95;;;;;;;;;;4949779;29;20207;-81
2021/12/18 01:15:38;;;;;;;19.60;13.68;;;;;;;;;;4963832;29;20189;-81
2021/12/18 01:23:34;;;;;;;19.45;12.77;;;;;;;;;;4966867;29;20223;-81
2021/12/18 01:26:00;;;;;;;25.25;14.48;;;;;;;;;;4963977;29;20184;-82
2021/12/18 01:28:26;;;;;;;18.65;12.15;;;;;;;;;;4964089;29;20196;-82
2021/12/18 01:30:53;;;;;;;27.55;13.52;;;;;;;;;;4963143;28;20735;-82
2021/12/18 01:33:19;;;;;;;22.38;13.32;;;;;;;;;;4964086;28;20184;-82
2021/12/18 01:35:45;;;;;;;19.83;13.00;;;;;;;;;;4967199;29;20172;-82
2021/12/18 01:38:11;;;;;;;21.83;12.93;;;;;;;;;;4946552;29;20176;-82
2021/12/18 01:40:37;;;;;;;25.23;12.85;;;;;;;;;;4962211;29;20192;-82
2021/12/18 01:46:07;;;;;;;17.98;13.38;;;;;;;;;;4963210;28;20192;-81
2021/12/18 01:51:33;;;;;;;13.65;11.10;;;;;;;;;;4964532;29;28618;-82
2021/12/18 01:54:00;;;;;;;19.55;12.32;;;;;;;;;;4966412;28;20173;-82
2021/12/18 01:56:27;;;;;;;19.85;11.60;;;;;;;;;;4949469;29;20176;-81
2021/12/18 01:58:54;;;;;;;19.65;13.02;;;;;;;;;;4963615;29;20180;-81
2021/12/18 02:01:21;;;;;;;18.65;12.40;;;;;;;;;;4963107;29;20220;-82
2021/12/18 02:03:47;;;;;;;19.05;13.10;;;;;;;;;;4964148;28;20676;-82
2021/12/18 02:06:13;;;;;;;18.05;12.35;;;;;;;;;;4946743;29;20224;-82
2021/12/18 02:08:39;;;;;;;20.33;13.43;;;;;;;;;;4949764;29;20176;-82
2021/12/18 02:11:27;;;;;;;17.52;11.45;;;;;;;;;;4948641;29;20222;-82
2021/12/18 02:22:07;;;;;;;21.27;12.60;;;;;;;;;;4962559;28;20260;-81
2021/12/18 02:24:34;;;;;;;20.20;12.23;;;;;;;;;;4945980;29;20216;-82
2021/12/18 02:27:00;;;;;;;17.75;11.88;;;;;;;;;;4948082;28;20203;-82
2021/12/18 02:29:29;;;;;;;14.80;10.90;;;;;;;;;;4946331;29;20180;-82
2021/12/18 02:31:55;;;;;;;18.20;12.63;;;;;;;;;;4962946;28;20227;-82
2021/12/18 02:34:27;;;;;;;13.98;10.52;;;;;;;;;;4957809;29;20189;-82
2021/12/18 02:36:59;;;;;;;15.07;11.02;;;;;;;;;;4952594;29;20184;-82
2021/12/18 02:39:43;;;;;;;15.13;11.05;;;;;;;;;;4963171;28;20677;-82
2021/12/18 02:42:13;;;;;;;19.80;12.23;;;;;;;;;;4945013;28;20201;-82
2021/12/18 02:44:39;;;;;;;16.00;9.77;;;;;;;;;;4959176;29;20185;-82
2021/12/18 02:47:06;;;;;;;16.98;10.95;;;;;;;;;;4961205;29;20196;-82
2021/12/18 02:49:33;;;;;;;17.15;11.40;;;;;;;;;;4962476;28;20239;-82
2021/12/18 02:51:59;;;;;;;16.15;11.10;;;;;;;;;;4962427;28;20219;-83
2021/12/18 02:54:26;;;;;;;19.60;12.00;;;;;;;;;;4945216;29;20181;-82
2021/12/18 02:56:52;;;;;;;16.35;11.68;;;;;;;;;;4949425;29;20173;-81
2021/12/18 02:59:18;;;;;;;22.27;11.95;;;;;;;;;;4963575;29;20217;-82
2021/12/18 03:01:44;;;;;;;16.48;12.23;;;;;;;;;;4962844;29;20289;-82
2021/12/18 03:04:17;;;;;;;16.60;11.30;;;;;;;;;;4961919;28;20217;-82
2021/12/18 03:06:48;;;;;;;16.63;10.63;;;;;;;;;;4962581;28;20199;-82
2021/12/18 03:25:11;;;;;;;17.15;10.93;;;;;;;;;;4959784;28;20188;-81
2021/12/18 03:27:37;;;;;;;15.40;10.93;;;;;;;;;;4949689;28;20199;-81
2021/12/18 03:30:04;;;;;;;13.90;10.73;;;;;;;;;;4946426;28;20197;-82
2021/12/18 03:32:30;;;;;;;16.35;11.20;;;;;;;;;;4965653;28;20678;-82
2021/12/18 03:34:56;;;;;;;18.00;12.75;;;;;;;;;;4950745;29;20626;-84
2021/12/18 03:37:22;;;;;;;16.63;11.50;;;;;;;;;;4951105;29;20192;-81
2021/12/18 03:39:48;;;;;;;11.93;9.65;;;;;;;;;;4966579;29;20244;-82
2021/12/18 03:42:14;;;;;;;14.55;10.68;;;;;;;;;;4955058;28;20207;-83
2021/12/18 03:44:41;;;;;;;16.27;11.05;;;;;;;;;;4952036;29;20221;-82
2021/12/18 03:47:07;;;;;;;15.77;11.38;;;;;;;;;;4965024;28;20192;-80
2021/12/18 03:49:33;;;;;;;16.90;11.88;;;;;;;;;;4948364;29;20259;-82
2021/12/18 03:51:59;;;;;;;15.23;10.23;;;;;;;;;;4965089;29;20305;-79
2021/12/18 03:54:25;;;;;;;13.30;10.32;;;;;;;;;;4966228;29;20189;-83
2021/12/18 03:56:52;;;;;;;14.00;10.68;;;;;;;;;;4956246;29;20180;-82
2021/12/18 03:59:18;;;;;;;13.57;9.90;;;;;;;;;;4957940;29;20172;-80
2021/12/18 04:01:44;;;;;;;14.18;10.05;;;;;;;;;;4966797;29;20188;-82
2021/12/18 04:04:10;;;;;;;15.20;9.77;;;;;;;;;;4965440;28;20196;-81
2021/12/18 04:06:39;;;;;;;21.27;11.38;;;;;;;;;;4948756;29;20221;-80
2021/12/18 04:09:06;;;;;;;18.20;11.95;;;;;;;;;;4949667;28;20181;-80
2021/12/18 04:11:33;;;;;;;14.82;10.23;;;;;;;;;;4967846;29;20208;-80
2021/12/18 04:14:01;;;;;;;14.25;10.55;;;;;;;;;;4965420;29;20662;-81
2021/12/18 04:16:28;;;;;;;16.33;9.75;;;;;;;;;;4946848;29;20191;-81
2021/12/18 04:18:54;;;;;;;16.38;11.55;;;;;;;;;;4950406;29;20271;-81
2021/12/18 04:21:20;;;;;;;12.85;9.32;;;;;;;;;;4964760;29;20192;-83
2021/12/18 04:23:46;;;;;;;14.88;10.13;;;;;;;;;;4963984;29;20188;-80
2021/12/18 04:26:12;;;;;;;13.23;9.80;;;;;;;;;;4948096;29;20180;-79
2021/12/18 04:28:38;;;;;;;15.77;12.70;;;;;;;;;;4965469;28;20239;-81
2021/12/18 04:31:04;;;;;;;19.42;12.40;;;;;;;;;;4964429;28;20212;-80
2021/12/18 04:33:30;;;;;;;17.65;11.05;;;;;;;;;;4964411;29;20231;-80
2021/12/18 04:35:56;;;;;;;18.00;11.65;;;;;;;;;;4967277;28;20696;-80
2021/12/18 04:38:22;;;;;;;16.20;11.73;;;;;;;;;;4966135;29;20177;-79
2021/12/18 04:40:49;;;;;;;14.98;10.35;;;;;;;;;;4947563;29;20184;-79
2021/12/18 04:43:15;;;;;;;16.27;11.18;;;;;;;;;;4964820;28;20590;-82
2021/12/18 04:45:41;;;;;;;14.70;10.65;;;;;;;;;;4963523;28;20189;-80
2021/12/18 04:48:07;;;;;;;17.80;13.23;;;;;;;;;;4966435;28;20200;-81
2021/12/18 04:50:34;;;;;;;17.52;10.82;;;;;;;;;;4967322;29;20184;-80
2021/12/18 04:53:00;;;;;;;16.10;11.13;;;;;;;;;;4947213;29;20184;-80
2021/12/18 04:55:26;;;;;;;18.05;12.60;;;;;;;;;;4964762;29;20630;-80
2021/12/18 04:57:54;;;;;;;14.25;10.60;;;;;;;;;;4964355;28;20557;-80
2021/12/18 05:00:20;;;;;;;16.40;11.20;;;;;;;;;;4964278;29;20267;-80
2021/12/18 05:02:49;;;;;;;16.63;11.75;;;;;;;;;;4967542;28;20183;-80
2021/12/18 05:05:15;;;;;;;17.80;11.93;;;;;;;;;;4964936;29;20208;-79
2021/12/18 05:07:44;;;;;;;23.42;12.98;;;;;;;;;;4964678;28;20194;-80
2021/12/18 05:10:11;;;;;;;17.25;12.95;;;;;;;;;;4947203;29;20188;-80
2021/12/18 05:12:37;;;;;;;18.85;11.82;;;;;;;;;;4963864;29;20354;-80
2021/12/18 05:15:04;;;;;;;19.17;11.85;;;;;;;;;;4964302;28;20178;-81
2021/12/18 05:17:30;;;;;;;17.00;11.57;;;;;;;;;;4967312;29;20180;-82
2021/12/18 05:19:56;;;;;;;20.65;14.15;;;;;;;;;;4947047;29;20193;-81
2021/12/18 05:22:22;;;;;;;15.48;11.35;;;;;;;;;;4959617;29;20200;-81
2021/12/18 05:24:48;;;;;;;15.30;11.50;;;;;;;;;;4953227;28;20272;-80
2021/12/18 05:27:14;;;;;;;18.80;12.55;;;;;;;;;;4964478;28;20293;-80
2021/12/18 05:29:40;;;;;;;19.92;12.30;;;;;;;;;;4948915;29;20196;-79
2021/12/18 05:32:06;;;;;;;16.55;11.73;;;;;;;;;;4964413;28;20303;-80
2021/12/18 05:34:37;;;;;;;15.25;11.20;;;;;;;;;;4964030;29;20263;-79
2021/12/18 05:37:18;;;;;;;18.33;11.65;;;;;;;;;;4964170;28;20181;-80
2021/12/18 05:39:44;;;;;;;18.45;12.65;;;;;;;;;;4946367;29;20248;-79
2021/12/18 05:42:10;;;;;;;20.73;13.00;;;;;;;;;;4964312;28;20267;-82
2021/12/18 05:44:36;;;;;;;17.17;12.77;;;;;;;;;;4966320;29;20200;-81
2021/12/18 05:47:03;;;;;;;17.13;12.50;;;;;;;;;;4946371;29;20553;-81
2021/12/18 05:49:29;;;;;;;17.42;11.70;;;;;;;;;;4963298;29;20360;-81
2021/12/18 05:51:55;;;;;;;17.25;11.65;;;;;;;;;;4960640;29;20213;-81
2021/12/18 05:54:21;;;;;;;16.58;11.60;;;;;;;;;;4964199;28;20191;-81
2021/12/18 05:56:47;;;;;;;18.40;13.02;;;;;;;;;;4950045;28;20191;-83
2021/12/18 05:59:13;;;;;;;17.85;12.23;;;;;;;;;;4963976;29;20256;-81
2021/12/18 06:01:39;;;;;;;16.35;11.85;;;;;;;;;;4945733;29;20488;-81
2021/12/18 06:04:05;;;;;;;17.52;11.90;;;;;;;;;;4948898;29;20203;-82
2021/12/18 06:06:31;;;;;;;15.20;11.93;;;;;;;;;;4963261;28;20225;-81
2021/12/18 06:08:57;;;;;;;19.25;12.80;;;;;;;;;;4965652;28;20208;-81
2021/12/18 06:11:27;;;;;;;16.45;11.68;;;;;;;;;;4960884;29;20204;-81
2021/12/18 06:13:53;;;;;;;16.80;12.27;;;;;;;;;;4960870;29;20183;-80
2021/12/18 06:16:20;;;;;;;16.05;12.43;;;;;;;;;;4962683;29;20272;-80
2021/12/18 06:18:49;;;;;;;18.52;13.07;;;;;;;;;;4963266;29;20342;-81
2021/12/18 06:21:16;;;;;;;17.42;11.40;;;;;;;;;;4948440;28;20190;-81
2021/12/18 06:23:43;;;;;;;19.98;13.82;;;;;;;;;;4962719;29;20259;-81
2021/12/18 06:26:09;;;;;;;17.73;13.15;;;;;;;;;;4948135;29;20191;-81
2021/12/18 06:28:35;;;;;;;18.70;12.90;;;;;;;;;;4948203;29;20192;-82
2021/12/18 06:31:01;;;;;;;16.70;12.82;;;;;;;;;;4947843;29;20228;-79
2021/12/18 06:33:28;;;;;;;18.05;13.27;;;;;;;;;;4945910;29;20185;-81
2021/12/18 06:35:54;;;;;;;15.75;10.77;;;;;;;;;;4965568;28;20272;-83
2021/12/18 06:38:20;;;;;;;20.33;13.07;;;;;;;;;;4964372;29;20180;-81
2021/12/18 06:40:46;;;;;;;16.35;12.23;;;;;;;;;;4944940;29;20623;-81
2021/12/18 06:43:12;;;;;;;15.90;11.52;;;;;;;;;;4962581;29;20288;-81
2021/12/18 06:45:38;;;;;;;18.65;12.23;;;;;;;;;;4961809;29;20531;-81
2021/12/18 06:48:04;;;;;;;15.60;11.77;;;;;;;;;;4964985;28;20176;-80
2021/12/18 06:50:30;;;;;;;17.42;12.30;;;;;;;;;;4951939;28;20527;-82
2021/12/18 06:52:56;;;;;;;15.13;12.15;;;;;;;;;;4953179;29;20221;-81
2021/12/18 06:55:22;;;;;;;19.92;12.10;;;;;;;;;;4955563;29;20191;-81
2021/12/18 06:57:48;;;;;;;15.98;11.70;;;;;;;;;;4945470;29;20252;-81
2021/12/18 07:00:15;;;;;;;14.80;11.52;;;;;;;;;;4947959;28;20192;-82
2021/12/18 07:02:41;;;;;;;17.33;11.35;;;;;;;;;;4948593;29;20168;-80
2021/12/18 07:05:08;;;;;;;16.75;11.18;;;;;;;;;;4961967;28;20228;-82
2021/12/18 07:07:34;;;;;;;16.42;10.45;;;;;;;;;;4960849;28;20192;-82
2021/12/18 07:10:00;;;;;;;14.00;10.43;;;;;;;;;;4946797;29;20188;-82
2021/12/18 07:12:26;;;;;;;15.63;11.85;;;;;;;;;;4962134;28;20220;-81
2021/12/18 07:14:52;;;;;;;15.88;10.73;;;;;;;;;;4960460;29;20180;-81
2021/12/18 07:17:18;;;;;;;14.95;10.65;;;;;;;;;;4937516;29;20252;-82
2021/12/18 07:19:44;;;;;;;15.60;11.17;;;;;;;;;;4959920;28;20189;-82
2021/12/18 07:22:10;;;;;;;12.75;10.52;;;;;;;;;;4954369;29;20490;-82
2021/12/18 07:24:36;;;;;;;14.23;11.13;;;;;;;;;;4958887;28;20188;-83
2021/12/18 07:27:02;;;;;;;16.75;11.57;;;;;;;;;;4946875;29;20183;-82
2021/12/18 07:29:28;;;;;;;13.88;9.75;;;;;;;;;;4963649;29;20183;-82
2021/12/18 07:31:54;;;;;;;16.15;10.60;;;;;;;;;;4970680;28;20211;-88
2021/12/18 07:34:20;;;;;;;13.30;9.75;;;;;;;;;;4949108;28;20207;-86
2021/12/18 07:36:46;;;;;;;13.48;11.27;;;;;;;;;;4954859;28;20219;-88
2021/12/18 07:39:13;;;;;;;13.27;9.05;;;;;;;;;;4946869;28;20185;-88
2021/12/18 07:41:39;;;;;;;16.60;11.45;;;;;;;;;;4949025;29;20188;-86
2021/12/18 07:44:08;;;;;;;15.55;10.45;;;;;;;;;;4960566;29;20196;-87
2021/12/18 07:46:35;;;;;;;16.92;10.55;;;;;;;;;;4947880;29;20219;-87
2021/12/18 07:49:02;;;;;;;16.00;10.60;;;;;;;;;;4950068;29;20215;-88
2021/12/18 07:51:28;;;;;;;14.38;10.82;;;;;;;;;;4952552;28;20250;-86
2021/12/18 07:53:54;;;;;;;14.68;10.85;;;;;;;;;;4948348;29;20189;-87
2021/12/18 07:56:20;;;;;;;15.15;10.95;;;;;;;;;;4944225;29;20631;-85
2021/12/18 07:58:46;;;;;;;16.50;12.70;;;;;;;;;;4946357;28;20193;-87
2021/12/18 08:01:12;;;;;;;15.40;11.30;;;;;;;;;;4961787;28;20193;-88
2021/12/18 08:03:38;;;;;;;17.35;11.57;;;;;;;;;;4946877;29;20519;-88
2021/12/18 08:06:04;;;;;;;18.30;11.45;;;;;;;;;;4946767;28;20219;-88
2021/12/18 08:08:30;;;;;;;16.58;12.30;;;;;;;;;;4951464;29;20184;-87
2021/12/18 08:10:56;;;;;;;17.05;11.70;;;;;;;;;;4949934;28;20306;-88
2021/12/18 08:13:22;;;;;;;17.10;11.43;;;;;;;;;;4945602;29;20184;-87
2021/12/18 08:15:48;;;;;;;17.13;12.25;;;;;;;;;;4948630;28;20187;-88
2021/12/18 08:18:14;;;;;;;16.88;12.88;;;;;;;;;;4956520;28;20188;-86
2021/12/18 08:20:40;;;;;;;19.30;12.50;;;;;;;;;;4954513;28;20180;-85
2021/12/18 08:23:06;;;;;;;15.63;10.98;;;;;;;;;;4948605;29;20192;-87
2021/12/18 08:25:33;;;;;;;18.90;12.55;;;;;;;;;;4959574;28;20181;-87
2021/12/18 08:28:00;;;;;;;16.50;12.85;;;;;;;;;;4940517;29;20181;-87
2021/12/18 08:30:26;;;;;;;18.85;11.55;;;;;;;;;;4945676;29;20180;-87
2021/12/18 08:32:52;;;;;;;18.02;12.80;;;;;;;;;;4950759;29;20200;-87
2021/12/18 08:35:18;;;;;;;19.70;12.35;;;;;;;;;;4954857;29;20184;-87
2021/12/18 08:37:44;;;;;;;14.23;11.02;;;;;;;;;;4959739;29;20184;-87
2021/12/18 08:40:11;;;;;;;15.95;11.55;;;;;;;;;;4950694;29;20181;-87
2021/12/18 08:42:37;;;;;;;14.55;11.57;;;;;;;;;;4948212;29;20256;-87
2021/12/18 08:45:04;;;;;;;18.35;12.68;;;;;;;;;;4961973;28;20184;-87
2021/12/18 08:47:30;;;;;;;20.92;13.38;;;;;;;;;;4942579;29;20204;-86
2021/12/18 08:49:56;;;;;;;14.23;11.18;;;;;;;;;;4949697;29;20192;-87
2021/12/18 08:52:22;;;;;;;15.30;10.68;;;;;;;;;;4950821;29;20279;-86
2021/12/18 08:54:48;;;;;;;17.42;12.68;;;;;;;;;;4950511;29;20271;-87
2021/12/18 08:57:17;;;;;;;18.73;11.45;;;;;;;;;;4966420;29;20185;-87
2021/12/18 08:59:44;;;;;;;17.23;11.60;;;;;;;;;;4946925;29;20253;-86
2021/12/18 09:02:10;;;;;;;12.85;10.25;;;;;;;;;;4949180;29;20661;-86
2021/12/18 09:04:36;;;;;;;18.55;11.45;;;;;;;;;;4949286;29;20240;-87
2021/12/18 09:07:03;;;;;;;17.67;11.07;;;;;;;;;;4947150;29;20184;-88
2021/12/18 09:09:29;;;;;;;16.30;11.10;;;;;;;;;;4947340;29;20196;-88
2021/12/18 09:11:55;;;;;;;14.77;10.73;;;;;;;;;;4949994;28;20212;-87
2021/12/18 09:14:21;;;;;;;16.63;12.15;;;;;;;;;;4950889;29;20238;-88
2021/12/18 09:16:47;;;;;;;17.42;11.00;;;;;;;;;;4950303;29;20212;-88
2021/12/18 09:19:13;;;;;;;14.60;10.30;;;;;;;;;;4948281;29;20188;-84
2021/12/18 09:21:39;;;;;;;19.58;11.35;;;;;;;;;;4952232;28;20332;-84
2021/12/18 09:24:05;;;;;;;15.32;10.63;;;;;;;;;;4964802;28;20189;-85
2021/12/18 09:26:31;;;;;;;14.70;11.70;;;;;;;;;;4949521;28;20189;-84
2021/12/18 09:28:58;;;;;;;16.15;10.27;;;;;;;;;;4951315;29;20197;-83
2021/12/18 09:31:26;;;;;;;14.75;10.43;;;;;;;;;;4963299;28;20349;-82
2021/12/18 09:33:53;;;;;;;16.23;11.50;;;;;;;;;;4971054;28;20216;-81
2021/12/18 09:36:19;;;;;;;17.38;11.98;;;;;;;;;;4963500;28;20193;-81
2021/12/18 09:38:45;;;;;;;17.08;11.40;;;;;;;;;;4967631;29;20176;-82
2021/12/18 09:41:11;;;;;;;14.98;10.55;;;;;;;;;;4946600;29;20228;-81
2021/12/18 09:43:37;;;;;;;17.83;13.20;;;;;;;;;;4964067;28;20188;-82
2021/12/18 09:46:08;;;;;;;14.80;10.43;;;;;;;;;;4962802;29;20196;-81
2021/12/18 09:48:35;;;;;;;20.85;12.38;;;;;;;;;;4963617;28;20185;-81
2021/12/18 09:51:02;;;;;;;14.20;10.10;;;;;;;;;;4948631;28;20200;-82
2021/12/18 09:53:28;;;;;;;16.55;10.25;;;;;;;;;;4964976;29;20180;-82
2021/12/18 09:55:54;;;;;;;13.93;10.50;;;;;;;;;;4963435;29;20195;-82
2021/12/18 09:58:20;;;;;;;14.55;10.50;;;;;;;;;;4963875;28;20192;-81
2021/12/18 10:00:46;;;;;;;16.67;10.10;;;;;;;;;;4945869;29;20204;-82
2021/12/18 10:03:12;;;;;;;12.70;9.45;;;;;;;;;;4964164;28;20181;-82
2021/12/18 10:05:38;;;;;;;17.58;10.50;;;;;;;;;;4966134;29;20243;-82
2021/12/18 10:08:13;;;;;;;13.63;9.93;;;;;;;;;;4945998;29;20191;-81
2021/12/18 10:10:57;;;;;;;14.45;10.25;;;;;;;;;;4963450;28;20203;-81
2021/12/18 10:13:23;;;;;;;12.30;9.02;;;;;;;;;;4963967;29;20204;-82
2021/12/18 10:16:06;;;;;;;19.10;11.80;;;;;;;;;;4945634;29;20203;-80
2021/12/18 10:18:33;;;;;;;15.50;11.25;;;;;;;;;;4950633;28;20192;-82
2021/12/18 10:21:10;;;;;;;18.75;10.70;;;;;;;;;;4965658;28;20204;-81
2021/12/18 10:23:36;;;;;;;15.02;10.85;;;;;;;;;;4965991;29;20168;-80
2021/12/18 10:26:02;;;;;;;13.05;9.68;;;;;;;;;;4963325;28;20188;-81
2021/12/18 10:28:41;;;;;;;14.68;10.20;;;;;;;;;;4963272;29;20188;-82
2021/12/18 10:31:07;;;;;;;13.45;10.30;;;;;;;;;;4962555;29;20255;-81
2021/12/18 10:33:35;;;;;;;12.73;9.10;;;;;;;;;;4962705;29;20192;-82
2021/12/18 10:36:01;;;;;;;12.27;9.63;;;;;;;;;;4965163;29;20172;-80
2021/12/18 10:38:38;;;;;;;14.32;8.68;;;;;;;;;;4947142;29;20185;-81
2021/12/18 10:41:18;;;;;;;13.07;9.48;;;;;;;;;;4962157;28;20212;-79
2021/12/18 10:43:59;;;;;;;14.52;10.35;;;;;;;;;;4962632;28;20195;-81
2021/12/18 10:46:26;;;;;;;11.35;9.90;;;;;;;;;;4962206;29;20180;-81
2021/12/18 10:49:00;;;;;;;10.70;8.00;;;;;;;;;;4947179;29;20724;-82
2021/12/18 10:51:27;;;;;;;10.98;8.80;;;;;;;;;;4965503;28;20211;-81
2021/12/18 10:53:59;;;;;;;10.27;8.55;;;;;;;;;;4965966;28;20168;-81
2021/12/18 10:56:36;;;;;;;12.90;11.43;;;;;;;;;;4968411;29;20181;-82
2021/12/18 10:59:03;;;;;;;13.25;9.18;;;;;;;;;;4945387;29;20185;-81
2021/12/18 11:01:29;;;;;;;13.95;9.98;;;;;;;;;;4960979;29;20221;-82
2021/12/18 11:03:55;;;;;;;12.20;9.52;;;;;;;;;;4945331;29;20404;-81
2021/12/18 11:06:21;;;;;;;12.15;8.75;;;;;;;;;;4947540;29;20228;-82
2021/12/18 11:09:00;;;;;;;13.10;10.23;;;;;;;;;;4966204;29;20191;-81
2021/12/18 11:14:04;;;;;;;12.90;10.35;;;;;;;;;;4958806;28;20180;-86
2021/12/18 11:16:30;;;;;;;13.43;9.43;;;;;;;;;;4965335;28;20188;-88
2021/12/18 11:18:56;;;;;;;14.18;9.07;;;;;;;;;;4956465;28;20219;-90
2021/12/18 11:21:26;;;;;;;12.48;9.20;;;;;;;;;;4949280;29;20200;-85
2021/12/18 11:23:55;;;;;;;13.95;9.52;;;;;;;;;;4962154;29;20221;-86
2021/12/18 11:26:23;;;;;;;11.70;8.55;;;;;;;;;;4963329;28;20195;-84
2021/12/18 11:28:51;;;;;;;11.02;8.60;;;;;;;;;;4957184;29;20196;-86
2021/12/18 11:31:18;;;;;;;15.18;10.05;;;;;;;;;;4945327;29;20213;-84
2021/12/18 11:33:44;;;;;;;15.60;9.85;;;;;;;;;;4961671;28;20187;-88
2021/12/18 11:36:10;;;;;;;14.85;9.88;;;;;;;;;;4970833;28;20271;-84
2021/12/18 11:38:38;;;;;;;13.55;8.65;;;;;;;;;;4976170;28;20198;-86
2021/12/18 11:41:04;;;;;;;11.32;8.70;;;;;;;;;;4947877;28;20678;-85
2021/12/18 11:43:33;;;;;;;12.18;8.88;;;;;;;;;;4950610;29;20237;-86
2021/12/18 11:46:00;;;;;;;10.88;8.82;;;;;;;;;;4953449;28;20185;-87
2021/12/18 11:48:26;;;;;;;10.88;8.20;;;;;;;;;;4948778;29;20216;-87
2021/12/18 11:50:52;;;;;;;12.02;8.10;;;;;;;;;;4947528;29;20203;-88
2021/12/18 11:53:19;;;;;;;13.38;9.82;;;;;;;;;;4962943;28;20180;-86
2021/12/18 11:55:48;;;;;;;14.80;9.57;;;;;;;;;;4952185;29;20204;-87
2021/12/18 11:58:25;;;;;;;9.45;8.15;;;;;;;;;;4951234;29;20190;-87
2021/12/18 12:00:52;;;;;;;11.57;9.32;;;;;;;;;;4948631;29;20203;-85
2021/12/18 12:03:31;;;;;;;11.57;9.38;;;;;;;;;;4956159;29;20199;-86
2021/12/18 12:05:58;;;;;;;14.50;9.95;;;;;;;;;;4951099;28;20231;-86
2021/12/18 12:08:27;;;;;;;11.25;8.10;;;;;;;;;;4953169;29;20185;-87
2021/12/18 12:11:15;;;;;;;12.32;8.50;;;;;;;;;;4960269;28;20191;-86
2021/12/18 12:14:00;;;;;;;14.52;8.90;;;;;;;;;;4952309;29;20181;-87
2021/12/18 12:16:44;;;;;;;14.52;10.02;;;;;;;;;;4959026;28;20192;-86
2021/12/18 12:19:14;;;;;;;11.45;8.55;;;;;;;;;;4945014;28;20180;-85
2021/12/18 12:21:46;;;;;;;12.73;8.40;;;;;;;;;;4947728;29;20196;-86
2021/12/18 12:24:13;;;;;;;10.05;8.07;;;;;;;;;;4961731;28;20341;-87
2021/12/18 12:26:39;;;;;;;13.93;9.10;;;;;;;;;;4951681;28;20213;-85
2021/12/18 12:29:06;;;;;;;12.27;8.85;;;;;;;;;;4953254;28;20219;-87
2021/12/18 12:31:32;;;;;;;13.05;8.07;;;;;;;;;;4966782;28;20309;-88
2021/12/18 12:34:17;;;;;;;11.40;7.13;;;;;;;;;;4952266;29;20184;-87
2021/12/18 12:36:45;;;;;;;12.57;8.57;;;;;;;;;;4950716;29;20196;-85
2021/12/18 12:39:12;;;;;;;13.02;8.40;;;;;;;;;;4967622;28;20231;-86
2021/12/18 12:41:42;;;;;;;10.35;8.25;;;;;;;;;;4951965;29;20463;-86
2021/12/18 12:44:17;;;;;;;10.63;7.85;;;;;;;;;;4949694;29;20384;-88
2021/12/18 12:46:44;;;;;;;11.35;8.55;;;;;;;;;;4945210;29;20183;-88
2021/12/18 12:49:19;;;;;;;11.18;9.10;;;;;;;;;;4948122;29;20192;-86
2021/12/18 12:52:02;;;;;;;10.88;7.70;;;;;;;;;;4947545;29;20208;-85
2021/12/18 12:54:46;;;;;;;11.68;9.23;;;;;;;;;;4949838;28;20710;-85
2021/12/18 12:57:22;;;;;;;12.38;8.02;;;;;;;;;;4949338;28;20185;-82
2021/12/18 12:59:48;;;;;;;14.20;8.52;;;;;;;;;;4966219;28;20184;-86
2021/12/18 13:02:15;;;;;;;14.32;8.88;;;;;;;;;;4946397;29;20192;-88
2021/12/18 13:04:41;;;;;;;12.13;8.25;;;;;;;;;;4949624;29;20325;-86
2021/12/18 13:07:07;;;;;;;12.55;8.10;;;;;;;;;;4964845;29;20196;-82
2021/12/18 13:09:34;;;;;;;19.27;9.85;;;;;;;;;;4964690;28;20208;-87
2021/12/18 13:12:01;;;;;;;13.23;8.25;;;;;;;;;;4945412;28;20204;-87
2021/12/18 13:14:35;;;;;;;18.08;9.10;;;;;;;;;;4949846;29;20204;-84
2021/12/18 13:17:01;;;;;;;14.43;8.48;;;;;;;;;;4962022;28;20188;-85
2021/12/18 13:19:27;;;;;;;10.77;8.33;;;;;;;;;;4964350;29;20212;-84
2021/12/18 13:21:53;;;;;;;13.57;9.55;;;;;;;;;;4949063;29;20468;-87
2021/12/18 13:24:19;;;;;;;14.13;8.98;;;;;;;;;;4948965;29;20254;-86
2021/12/18 13:26:46;;;;;;;15.23;10.07;;;;;;;;;;4949122;29;20279;-86
2021/12/18 13:29:17;;;;;;;11.93;8.40;;;;;;;;;;4949752;29;20189;-86
2021/12/18 13:31:45;;;;;;;15.25;9.80;;;;;;;;;;4948177;29;20232;-85
2021/12/18 13:34:14;;;;;;;13.35;8.35;;;;;;;;;;4948654;29;20185;-84
2021/12/18 13:36:56;;;;;;;14.07;8.65;;;;;;;;;;4949113;29;20185;-85
2021/12/18 13:39:27;;;;;;;15.82;11.13;;;;;;;;;;4934178;29;20180;-86
2021/12/18 13:42:00;;;;;;;14.02;8.98;;;;;;;;;;4965979;29;20181;-84
2021/12/18 13:44:43;;;;;;;14.77;8.68;;;;;;;;;;4965839;29;20188;-82
2021/12/18 13:47:17;;;;;;;17.92;11.07;;;;;;;;;;4948159;29;20196;-85
2021/12/18 13:49:43;;;;;;;13.73;9.77;;;;;;;;;;4961373;29;20325;-89
2021/12/18 13:52:09;;;;;;;14.30;10.80;;;;;;;;;;4960414;28;20204;-85
2021/12/18 13:54:35;;;;;;;17.60;10.00;;;;;;;;;;4965355;29;20181;-85
2021/12/18 13:57:02;;;;;;;16.70;10.15;;;;;;;;;;4948568;29;20719;-84
2021/12/18 13:59:31;;;;;;;18.10;10.50;;;;;;;;;;4964243;28;20286;-86
2021/12/18 14:02:01;;;;;;;17.63;10.43;;;;;;;;;;4953918;29;20200;-85
2021/12/18 14:04:27;;;;;;;20.15;12.27;;;;;;;;;;4948025;29;20192;-86
2021/12/18 14:06:53;;;;;;;17.27;12.35;;;;;;;;;;4965835;29;20224;-90
2021/12/18 14:09:24;;;;;;;17.58;11.00;;;;;;;;;;4947820;29;20188;-91
2021/12/18 14:11:57;;;;;;;18.38;12.15;;;;;;;;;;4949694;28;20215;-87
2021/12/18 14:14:37;;;;;;;21.67;12.65;;;;;;;;;;4949432;29;20232;-85
2021/12/18 14:17:04;;;;;;;15.20;11.07;;;;;;;;;;4963801;28;20191;-87
2021/12/18 14:19:31;;;;;;;16.20;10.18;;;;;;;;;;4954060;29;20240;-86
2021/12/18 14:21:58;;;;;;;15.45;10.30;;;;;;;;;;4969377;29;20200;-84
2021/12/18 14:24:24;;;;;;;17.58;11.00;;;;;;;;;;4970677;29;20253;-85
2021/12/18 14:27:04;;;;;;;15.57;10.70;;;;;;;;;;4964634;28;20194;-88
2021/12/18 14:29:32;;;;;;;19.80;12.13;;;;;;;;;;4948423;29;20181;-85
2021/12/18 14:31:59;;;;;;;18.05;11.18;;;;;;;;;;4964801;28;20204;-87
2021/12/18 14:34:25;;;;;;;23.45;12.45;;;;;;;;;;4946077;29;20188;-86
2021/12/18 14:36:57;;;;;;;22.30;13.30;;;;;;;;;;4956423;29;20195;-85
2021/12/18 14:39:28;;;;;;;22.50;11.90;;;;;;;;;;4932753;29;20471;-84
2021/12/18 14:42:05;;;;;;;18.95;12.05;;;;;;;;;;4948230;28;20255;-84
2021/12/18 14:44:32;;;;;;;20.23;12.57;;;;;;;;;;4948634;29;20184;-85
2021/12/18 14:47:10;;;;;;;20.83;12.40;;;;;;;;;;4944825;29;20193;-85
2021/12/18 14:49:36;;;;;;;16.88;11.25;;;;;;;;;;4947489;29;20219;-88
2021/12/18 14:52:06;;;;;;;16.65;11.05;;;;;;;;;;4948304;29;20578;-85
2021/12/18 14:54:52;;;;;;;20.42;12.60;;;;;;;;;;4963010;28;20184;-83
2021/12/18 14:57:23;;;;;;;20.13;10.98;;;;;;;;;;4961620;28;20216;-86
2021/12/18 15:00:08;;;;;;;16.98;10.23;;;;;;;;;;4956526;28;20184;-86
2021/12/18 15:02:51;;;;;;;20.77;12.15;;;;;;;;;;4963261;28;20255;-85
2021/12/18 15:05:17;;;;;;;18.08;11.55;;;;;;;;;;4948106;29;20315;-86